• Join FlightAware (Why Join?)
  • Login
  • US Flag 
03:02PM EDT


 

Airport Tracker/Info


-or-


 

Live Flight TrackerFlight Track Log ✈ UAL5847 ✈ 24-Jun-2013 ✈ KXNA - KORD

Flight Track Log - Related Links

Times and Time Zones

All times are in EDT time to prevent confusion due to time zone crossing. See the UAL5847 flight status page for this flight to view local times or setup timezone preferences in your user account.

Time Position Orientation Groundspeed Altitude Reporting Facility
EDT Latitude Longitude Course Direction KTS MPH feet Rate Location/Type
11:07AM 36.8056 -94.4145 351° North  Level FlightAware Approximate
11:08AM 36.8509 -94.3954 60° Northeast  Level FlightAware Approximate
11:08AM 36.6956 -94.4111 60° Northeast 320 368 11,300  Level Kansas City Center
11:09AM 36.8847 -94.3222 60° Northeast  Level FlightAware Approximate
11:09AM 36.8217 -94.4136 359° North 358 412 12,500  Level Kansas City Center
11:10AM 36.9185 -94.2490 60° Northeast  Level FlightAware Approximate
11:10AM 36.8961 -94.3275 43° Northeast 372 428 13,400  Level Kansas City Center
11:11AM 36.9575 -94.1804 50° Northeast  Level FlightAware Approximate
11:11AM 36.9497 -94.2125 60° Northeast 381 438 14,400  Level Kansas City Center
11:12AM 36.9934 -94.1089 60° Northeast  Level FlightAware Approximate
11:12AM 37.0250 -94.1197 45° Northeast 380 437 15,400  Level Kansas City Center
11:13AM 37.0272 -94.0356 60° Northeast  Level FlightAware Approximate
11:13AM 37.1069 -94.0336 40° Northeast 384 442 16,300  Level Kansas City Center
11:14AM 37.0610 -93.9623 60° Northeast  Level FlightAware Approximate
11:14AM 37.2022 -93.9317 40° Northeast 386 444 17,400  Level Kansas City Center
11:15AM 37.2833 -93.8428 41° Northeast 387 445 18,300 900 Climbing Kansas City Center
11:16AM 37.3650 -93.7519 41° Northeast 388 447 19,300 900 Climbing Kansas City Center
11:17AM 37.4481 -93.6619 41° Northeast 391 450 20,200 900 Climbing Kansas City Center
11:18AM 37.5333 -93.5678 41° Northeast 401 461 21,200 1,080 Climbing Kansas City Center
11:19AM 37.6194 -93.4753 40° Northeast 405 466 22,500 1,200 Climbing Kansas City Center
11:20AM 37.7017 -93.3839 41° Northeast 398 458 23,800 1,200 Climbing Kansas City Center
11:21AM 37.7994 -93.2750 41° Northeast 391 450 25,100 1,140 Climbing Kansas City Center
11:22AM 37.8831 -93.1836 41° Northeast 393 452 26,200 960 Climbing Kansas City Center
11:24AM 37.9644 -93.0914 42° Northeast 393 452 27,200 960 Climbing Kansas City Center
11:25AM 38.0489 -92.9972 41° Northeast 397 457 28,300 1,020 Climbing Kansas City Center
11:26AM 38.1317 -92.9064 41° Northeast 394 453 29,400 960 Climbing Kansas City Center
11:27AM 38.2133 -92.8136 42° Northeast 390 449 30,400 960 Climbing Kansas City Center
11:28AM 38.2947 -92.7222 41° Northeast 388 447 31,500 960 Climbing Kansas City Center
11:29AM 38.3769 -92.6289 42° Northeast 390 449 32,500 1,080 Climbing Kansas City Center
11:30AM 38.4733 -92.5189 42° Northeast 386 444 33,800 1,020 Climbing Kansas City Center
11:31AM 38.5528 -92.4292 41° Northeast 382 440 34,700 540 Climbing Kansas City Center
11:32AM 38.6336 -92.3356 42° Northeast 385 443 35,000 120 Climbing Kansas City Center
11:33AM 38.7183 -92.2386 42° Northeast 399 459 35,000  Level Kansas City Center
11:34AM 38.8072 -92.1361 42° Northeast 417 480 35,000  Level Kansas City Center
11:35AM 38.9006 -92.0272 42° Northeast 440 506 35,000  Level Kansas City Center
11:36AM 38.9967 -91.9175 42° Northeast 454 522 35,000  Level Kansas City Center
11:37AM 39.1114 -91.7822 42° Northeast 463 533 35,000  Level Kansas City Center
11:38AM 39.1928 -91.6897 41° Northeast 457 526 35,000  Level Kansas City Center
11:39AM 39.2875 -91.5806 42° Northeast 455 524 35,000  Level Kansas City Center
11:40AM 39.4011 -91.4458 42° Northeast 459 528 35,000 -240 Level Kansas City Center
11:41AM 39.4961 -91.3336 42° Northeast 460 529 34,600 -780 Descending Kansas City Center
11:42AM 39.5922 -91.2197 42° Northeast 464 534 33,500 -720 Descending Kansas City Center
11:43AM 39.6867 -91.1067 43° Northeast 463 533 33,000 -240 Descending Kansas City Center
11:44AM 39.8203 -90.9686 38° Northeast 468 539 33,000  Level Kansas City Center
11:45AM 39.9250 -90.8628 38° Northeast 474 545 33,000  Level Kansas City Center
11:46AM 40.0297 -90.7583 37° Northeast 475 547 33,000  Level Kansas City Center
11:48AM 40.1328 -90.6531 38° Northeast 471 542 33,000  Level Kansas City Center
11:49AM 40.2369 -90.5478 38° Northeast 471 542 33,000  Level Kansas City Center
11:50AM 40.3378 -90.4369 40° Northeast 473 544 33,000  Level Kansas City Center
11:51AM 40.4433 -90.2853 48° Northeast 470 541 33,000  Level Kansas City Center
11:52AM 40.5328 -90.1578 47° Northeast 471 542 33,000  Level Kansas City Center
11:53AM 40.6100 -90.0456 48° Northeast 468 539 33,000 -1,140 Level Kansas City Center
11:54AM 40.7144 -89.8939 48° Northeast 468 539 30,700 -2,220 Descending Kansas City Center
11:55AM 40.8250 -89.7314 48° Northeast 484 557 27,800 -2,280 Descending Chicago Center
11:56AM 40.9317 -89.5750 48° Northeast 483 556 25,300 -1,800 Descending Chicago Center
11:57AM 41.0200 -89.4456 48° Northeast 479 551 24,100 -1,500 Descending Chicago Center
11:58AM 41.1067 -89.3181 48° Northeast 472 543 22,200 -2,280 Descending Chicago Center
11:59AM 41.1872 -89.1972 48° Northeast 447 514 19,500 -2,640 Descending Chicago Center
12:00PM 41.2658 -89.0778 49° Northeast 436 502 16,900 -2,640 Descending Chicago Center
12:01PM 41.3458 -88.9572 49° Northeast 436 502 14,100 -2,700 Descending Chicago Center
12:02PM 41.4358 -88.8233 48° Northeast 406 467 11,400 -1,500 Descending Chicago Center
12:03PM 41.5058 -88.7139 49° Northeast 389 448 11,000 -180 Descending Chicago Center
12:04PM 41.5600 -88.5850 61° Northeast 399 459 11,100  Climbing Chicago Center
12:05PM 41.6147 -88.4544 61° Northeast 402 463 11,000 -480 Descending Chicago Center
12:06PM 41.6842 -88.3378 51° Northeast 399 459 10,200 -540 Descending Chicago Center
12:07PM 41.7508 -88.2233 52° Northeast 390 449 10,000 -120 Descending Chicago Center
12:08PM 41.8175 -88.1086 52° Northeast 388 447 10,000 -360 Level Chicago Center
12:09PM 41.8803 -87.9839 56° Northeast 323 372 9,300 -1,260 Descending Chicago Center
12:11PM 41.8844 -87.8694 87° East 304 350 7,500 -1,500 Descending Chicago Center
12:12PM 41.8847 -87.7619 90° East 292 336 6,200 -1,560 Descending Chicago Center
12:13PM 41.9011 -87.6683 77° East 283 326 4,300 -1,860 Descending Chicago Center